Time;durP1;ratioP1;P1;durP2;ratioP2;P2;SDS_P1;SDS_P2;PMS_P1;PMS_P2;Temp;Humidity;BMP_temperature;BMP_pressure;BME280_temperature;BME280_humidity;BME280_pressure;Samples;Min_cycle;Max_cycle;Signal;HPM_P1;HPM_P2
2022/11/06 00:04:38;;;;;;;15.85;3.60;;;;;;;7.03;97.90;101312.41;10357000;28;20042;-80
2022/11/06 00:09:39;;;;;;;9.35;4.93;;;;;;;7.03;97.71;101316.72;10354895;28;20046;-80
2022/11/06 00:14:39;;;;;;;9.93;3.50;;;;;;;7.09;97.73;101311.00;10357460;28;20049;-82
2022/11/06 00:19:40;;;;;;;13.43;3.55;;;;;;;7.18;96.24;101301.25;10358449;28;20517;-81
2022/11/06 00:24:40;;;;;;;28.83;5.00;;;;;;;7.20;95.23;101299.63;10358015;28;20054;-80
2022/11/06 00:29:41;;;;;;;10.35;3.22;;;;;;;7.20;95.56;101294.44;10358809;28;20104;-80
2022/11/06 00:34:41;;;;;;;11.85;5.07;;;;;;;7.16;95.27;101302.81;10340957;28;20038;-80
2022/11/06 00:39:42;;;;;;;9.20;4.53;;;;;;;7.02;96.24;101299.28;10341138;28;20044;-80
2022/11/06 00:44:42;;;;;;;7.28;3.35;;;;;;;6.88;96.36;101300.94;10340677;28;20041;-82
2022/11/06 00:49:43;;;;;;;11.98;3.97;;;;;;;6.89;96.73;101302.72;10357905;28;20048;-81
2022/11/06 00:54:43;;;;;;;8.65;3.25;;;;;;;6.89;97.06;101301.06;10301951;28;20054;-80
2022/11/06 00:59:44;;;;;;;9.30;3.58;;;;;;;6.89;97.88;101302.72;10358245;28;20120;-83
2022/11/06 01:04:44;;;;;;;7.78;3.03;;;;;;;6.85;97.00;101291.22;10354927;28;20084;-82
2022/11/06 01:09:45;;;;;;;8.57;3.55;;;;;;;6.80;97.99;101282.19;10357192;28;20088;-81
2022/11/06 01:14:45;;;;;;;9.25;4.30;;;;;;;6.69;98.38;101291.84;10357173;28;20045;-82
2022/11/06 01:19:46;;;;;;;8.50;4.15;;;;;;;6.63;99.10;101278.41;10356683;28;20575;-82
2022/11/06 01:24:46;;;;;;;8.07;2.53;;;;;;;6.67;99.74;101275.22;10355723;28;20064;-81
2022/11/06 01:29:47;;;;;;;7.28;3.97;;;;;;;6.72;99.86;101268.63;10356875;28;20112;-81
2022/11/06 01:34:49;;;;;;;9.63;3.35;;;;;;;6.69;99.60;101257.13;10354195;28;20141;-81
2022/11/06 01:39:50;;;;;;;14.18;5.03;;;;;;;6.60;99.83;101260.91;10354708;28;20045;-82
2022/11/06 01:45:30;;;;;;;12.68;3.08;;;;;;;6.62;100.00;101263.59;10356057;28;20048;-82
2022/11/06 01:50:31;;;;;;;11.00;3.50;;;;;;;6.63;100.00;101260.19;10193864;28;20128;-82
2022/11/06 01:55:35;;;;;;;7.97;3.10;;;;;;;6.71;100.00;101261.63;10309639;28;20941;-82
2022/11/06 02:00:36;;;;;;;7.22;4.30;;;;;;;6.96;100.00;101263.31;10363773;28;20042;-82
2022/11/06 02:05:37;;;;;;;8.55;3.45;;;;;;;7.04;99.06;101267.34;10362886;28;20529;-81
2022/11/06 02:10:38;;;;;;;7.75;3.53;;;;;;;7.14;98.59;101260.16;10346319;28;20125;-82
2022/11/06 02:15:52;;;;;;;10.10;3.35;;;;;;;7.40;96.70;101261.03;10344808;28;20049;-81
2022/11/06 02:21:17;;;;;;;11.90;3.20;;;;;;;7.54;95.43;101239.41;10348298;28;20046;-82
2022/11/06 02:26:54;;;;;;;10.18;2.90;;;;;;;7.59;95.61;101242.31;10347509;28;20038;-82
2022/11/06 02:31:55;;;;;;;6.90;2.13;;;;;;;7.77;94.34;101229.59;10362233;28;20382;-82
2022/11/06 02:37:09;;;;;;;17.48;5.50;;;;;;;7.81;93.96;101231.59;10359866;28;20120;-82
2022/11/06 02:42:09;;;;;;;7.05;2.38;;;;;;;7.89;93.23;101230.38;10346097;28;20037;-82
2022/11/06 02:47:11;;;;;;;6.65;2.30;;;;;;;7.86;93.21;101218.88;10345444;28;20045;-83
2022/11/06 02:52:29;;;;;;;5.05;2.17;;;;;;;7.97;92.47;101217.84;10363191;28;20070;-82
2022/11/06 02:57:31;;;;;;;11.50;5.18;;;;;;;8.00;92.57;101207.63;10345626;28;20042;-81
2022/11/06 03:02:36;;;;;;;9.23;3.97;;;;;;;8.04;92.86;101206.09;10342596;28;20050;-81
2022/11/06 03:07:44;;;;;;;9.55;2.58;;;;;;;8.09;92.67;101207.28;10344847;28;20034;-82
2022/11/06 03:12:55;;;;;;;13.55;3.22;;;;;;;8.16;92.16;101214.69;10361438;28;20045;-82
2022/11/06 03:18:01;;;;;;;12.98;2.83;;;;;;;8.19;91.66;101209.66;10343660;28;20046;-83
2022/11/06 03:23:32;;;;;;;7.47;2.55;;;;;;;8.23;91.74;101222.09;10347259;28;20445;-83
2022/11/06 03:29:02;;;;;;;14.70;3.00;;;;;;;8.31;91.11;101212.16;10356275;28;20041;-80
2022/11/06 03:34:05;;;;;;;12.25;3.85;;;;;;;8.30;91.44;101201.59;10349106;28;20390;-81
2022/11/06 03:39:29;;;;;;;12.18;3.47;;;;;;;8.27;91.43;101193.59;10358192;28;20227;-82
2022/11/06 03:44:30;;;;;;;6.07;2.47;;;;;;;8.16;92.38;101185.13;10351633;28;20058;-79
2022/11/06 03:49:34;;;;;;;14.82;3.05;;;;;;;8.14;92.70;101177.19;10360456;28;20394;-82
2022/11/06 03:54:38;;;;;;;8.43;2.75;;;;;;;8.12;92.99;101175.31;10343384;28;20042;-82
2022/11/06 03:59:42;;;;;;;7.60;2.53;;;;;;;8.11;93.47;101156.13;10341747;28;20042;-79
2022/11/06 04:04:46;;;;;;;6.28;2.55;;;;;;;8.05;93.71;101137.50;10342738;28;20540;-80
2022/11/06 04:15:13;;;;;;;8.20;3.05;;;;;;;7.88;94.59;101142.56;10350570;28;20050;-79
2022/11/06 04:21:20;;;;;;;8.45;3.20;;;;;;;7.78;96.15;101137.59;10341107;28;20565;-80
2022/11/06 04:31:19;;;;;;;6.32;2.75;;;;;;;7.72;96.63;101131.97;10357546;28;20046;-80
2022/11/06 04:36:37;;;;;;;7.88;2.92;;;;;;;7.67;96.70;101118.69;10342722;28;20619;-81
2022/11/06 04:41:50;;;;;;;10.15;2.83;;;;;;;7.54;97.37;101113.50;10355146;28;20437;-81
2022/11/06 04:47:01;;;;;;;5.63;2.25;;;;;;;7.37;98.13;101115.00;10356419;28;20033;-81
2022/11/06 04:52:02;;;;;;;10.63;3.15;;;;;;;7.20;98.91;101107.00;10362922;28;20064;-80
2022/11/06 04:57:03;;;;;;;9.05;2.58;;;;;;;7.12;99.76;101103.91;10365209;28;20053;-81
2022/11/06 05:02:04;;;;;;;7.38;2.20;;;;;;;7.13;100.00;101097.91;10347701;28;20099;-80
2022/11/06 05:07:04;;;;;;;5.88;2.63;;;;;;;6.90;100.00;101094.69;10340439;28;20042;-81
2022/11/06 05:12:05;;;;;;;6.72;2.10;;;;;;;6.87;100.00;101097.09;10355950;28;20136;-83
2022/11/06 05:17:06;;;;;;;8.15;2.30;;;;;;;6.86;100.00;101097.88;10356007;28;20038;-82
2022/11/06 05:27:26;;;;;;;6.63;2.72;;;;;;;6.66;100.00;101087.84;10355973;28;20125;-82
2022/11/06 05:32:27;;;;;;;6.68;2.70;;;;;;;6.69;100.00;101086.34;10355542;28;20486;-81
2022/11/06 05:37:27;;;;;;;11.88;3.55;;;;;;;6.58;100.00;101085.63;10357349;28;20566;-81
2022/11/06 05:42:28;;;;;;;8.82;2.20;;;;;;;6.42;100.00;101073.28;10357842;28;20046;-81
2022/11/06 05:47:28;;;;;;;10.07;4.68;;;;;;;6.38;100.00;101067.78;10355420;28;20041;-81
2022/11/06 05:52:29;;;;;;;10.02;2.88;;;;;;;6.34;100.00;101070.97;10356010;28;20049;-81
2022/11/06 05:57:29;;;;;;;5.40;2.05;;;;;;;6.28;100.00;101064.56;10339699;28;20046;-81
2022/11/06 06:02:30;;;;;;;6.72;2.58;;;;;;;6.19;100.00;101063.94;10355773;28;20074;-81
2022/11/06 06:07:31;;;;;;;13.68;3.55;;;;;;;6.16;100.00;101059.41;10353523;28;20112;-81
2022/11/06 06:12:31;;;;;;;10.80;2.63;;;;;;;6.15;100.00;101070.59;10353505;28;20053;-80
2022/11/06 06:17:32;;;;;;;4.75;2.05;;;;;;;6.17;100.00;101058.63;10352946;28;20042;-81
2022/11/06 06:22:32;;;;;;;5.60;2.35;;;;;;;6.15;100.00;101054.13;10354244;28;20036;-81
2022/11/06 06:27:33;;;;;;;12.27;3.72;;;;;;;6.05;100.00;101068.16;10354668;28;20077;-80
2022/11/06 06:32:33;;;;;;;4.68;2.40;;;;;;;6.06;100.00;101063.88;10356118;28;20117;-80
2022/11/06 06:37:34;;;;;;;11.15;3.20;;;;;;;6.01;100.00;101067.06;10353623;28;20149;-79
2022/11/06 06:42:34;;;;;;;8.50;2.92;;;;;;;6.02;100.00;101052.38;10361649;28;20776;-81
2022/11/06 06:47:35;;;;;;;10.30;3.60;;;;;;;6.07;100.00;101057.91;10361868;28;20056;-78
2022/11/06 06:52:35;;;;;;;8.90;2.92;;;;;;;6.41;100.00;101065.41;10362421;28;20074;-81
2022/11/06 06:57:36;;;;;;;7.10;2.35;;;;;;;6.63;100.00;101062.53;10360940;28;20456;-79
2022/11/06 07:02:36;;;;;;;9.75;4.28;;;;;;;6.80;100.00;101068.84;10362243;28;20042;-83
2022/11/06 07:07:37;;;;;;;5.10;2.33;;;;;;;7.06;100.00;101067.06;10362297;28;20046;-81
2022/11/06 07:12:37;;;;;;;6.28;2.10;;;;;;;7.13;100.00;101064.06;10361073;28;20544;-80
2022/11/06 07:17:38;;;;;;;13.95;2.83;;;;;;;6.98;100.00;101066.56;10360172;28;20133;-82
2022/11/06 07:22:38;;;;;;;5.20;2.40;;;;;;;6.88;100.00;101061.53;10360188;28;20036;-79
2022/11/06 07:27:40;;;;;;;5.85;2.50;;;;;;;6.86;100.00;101057.94;10361839;28;20057;-79
2022/11/06 07:32:40;;;;;;;4.65;1.77;;;;;;;6.89;100.00;101059.06;10359643;28;20030;-79
2022/11/06 07:37:41;;;;;;;4.22;1.80;;;;;;;6.94;100.00;101058.47;10361217;28;20525;-81
2022/11/06 07:42:41;;;;;;;6.45;2.78;;;;;;;7.00;100.00;101062.34;10360833;28;20034;-80
2022/11/06 07:47:42;;;;;;;10.18;4.35;;;;;;;7.26;100.00;101057.03;10359856;28;20457;-80
2022/11/06 07:52:42;;;;;;;10.27;4.00;;;;;;;7.33;100.00;101054.91;10359098;28;20393;-80
2022/11/06 07:57:43;;;;;;;9.77;2.28;;;;;;;7.51;100.00;101051.66;10359393;28;20038;-80
2022/11/06 08:02:43;;;;;;;5.80;2.63;;;;;;;7.57;100.00;101048.56;10347680;28;20078;-80
2022/11/06 08:07:44;;;;;;;8.20;3.25;;;;;;;7.69;100.00;101035.38;10346688;28;20044;-81
2022/11/06 08:12:45;;;;;;;9.93;2.78;;;;;;;7.77;99.77;101037.69;10351534;28;20056;-81
2022/11/06 08:17:45;;;;;;;16.83;2.85;;;;;;;8.02;97.79;101022.63;10360374;28;20044;-78
2022/11/06 08:22:46;;;;;;;3.83;2.35;;;;;;;8.31;96.76;101018.25;10362281;28;20050;-81
2022/11/06 08:27:46;;;;;;;9.05;2.60;;;;;;;8.59;95.46;101022.53;10358179;28;20124;-77
2022/11/06 08:32:47;;;;;;;10.32;3.05;;;;;;;8.76;92.35;101023.50;10348853;28;20095;-80
2022/11/06 08:37:47;;;;;;;4.15;1.75;;;;;;;8.71;92.74;101017.13;10356438;28;20478;-78
2022/11/06 08:42:48;;;;;;;5.60;1.98;;;;;;;8.69;91.08;101022.25;10358219;28;20045;-78
2022/11/06 08:47:48;;;;;;;6.55;2.80;;;;;;;8.79;90.72;101013.25;10357830;28;20034;-78
2022/11/06 08:52:49;;;;;;;6.80;1.75;;;;;;;8.95;89.00;100996.72;10357448;28;20050;-76
2022/11/06 08:57:50;;;;;;;7.25;2.80;;;;;;;9.10;88.48;100989.75;10354692;28;20125;-77
2022/11/06 09:02:53;;;;;;;3.25;1.83;;;;;;;9.45;85.69;100986.38;10353510;28;20046;-77
2022/11/06 09:07:58;;;;;;;6.72;1.75;;;;;;;9.70;85.47;100973.81;10353637;28;20034;-78
2022/11/06 09:13:02;;;;;;;8.63;1.70;;;;;;;9.66;83.32;100964.00;10356985;28;20049;-77
2022/11/06 09:18:04;;;;;;;7.15;2.53;;;;;;;9.69;84.74;100960.69;10355345;28;20108;-77
2022/11/06 09:23:05;;;;;;;6.38;2.25;;;;;;;9.75;83.87;100953.16;10355239;28;20048;-79
2022/11/06 09:28:06;;;;;;;6.10;2.47;;;;;;;10.16;83.28;100950.88;10356507;28;20045;-79
2022/11/06 09:33:06;;;;;;;8.50;2.25;;;;;;;10.51;79.41;100945.66;10357443;28;20125;-78
2022/11/06 09:38:10;;;;;;;7.22;1.48;;;;;;;10.72;77.00;100931.00;10355416;28;20038;-79
2022/11/06 09:43:25;;;;;;;6.15;2.28;;;;;;;11.10;76.57;100917.00;10351757;28;20034;-79
2022/11/06 09:48:31;;;;;;;8.73;2.15;;;;;;;11.24;75.07;100909.78;10352008;28;20116;-79
2022/11/06 09:53:35;;;;;;;4.03;1.42;;;;;;;11.80;71.67;100904.34;10365853;28;20065;-79
2022/11/06 09:58:37;;;;;;;6.70;1.40;;;;;;;11.37;71.59;100912.13;10315776;28;20046;-79
2022/11/06 10:03:44;;;;;;;3.88;1.17;;;;;;;11.17;73.76;100903.38;10318524;28;20405;-80
2022/11/06 10:08:44;;;;;;;7.03;2.17;;;;;;;11.15;74.33;100902.41;10356825;28;20050;-78
2022/11/06 10:13:58;;;;;;;6.85;2.35;;;;;;;11.13;74.91;100899.69;10372966;28;20038;-80
2022/11/06 10:19:23;;;;;;;5.07;2.00;;;;;;;11.11;73.23;100888.25;10372924;28;20100;-78
2022/11/06 10:24:36;;;;;;;5.45;1.42;;;;;;;11.27;73.16;100894.19;10363833;28;20072;-78
2022/11/06 10:29:38;;;;;;;;;;;;;;;11.24;73.96;100888.81;10330386;28;20505;-78
2022/11/06 10:34:49;;;;;;;8.17;1.77;;;;;;;11.22;73.17;100880.91;10362330;28;19957;-79
2022/11/06 10:39:50;;;;;;;6.30;2.03;;;;;;;11.40;73.33;100885.16;10351841;28;20045;-79
2022/11/06 10:45:27;;;;;;;2.65;1.40;;;;;;;11.47;73.49;100874.13;10370325;28;20038;-78
2022/11/06 10:50:34;;;;;;;6.63;2.22;;;;;;;11.39;73.37;100857.16;10287492;28;20391;-79
2022/11/06 10:55:35;;;;;;;3.90;1.65;;;;;;;11.33;74.39;100851.66;10346489;28;20088;-82
2022/11/06 11:00:35;;;;;;;3.90;1.65;;;;;;;11.34;74.50;100841.22;10347540;28;20038;-82
2022/11/06 11:05:38;;;;;;;6.47;1.25;;;;;;;11.34;73.50;100833.38;10346963;28;20124;-82
2022/11/06 11:10:39;;;;;;;5.35;2.53;;;;;;;11.32;74.03;100821.94;10362183;28;20066;-82
2022/11/06 11:15:46;;;;;;;2.58;1.05;;;;;;;11.51;74.27;100814.88;10343670;28;20120;-82
2022/11/06 11:20:50;;;;;;;7.18;2.05;;;;;;;11.88;72.54;100808.56;10344205;28;20049;-82
2022/11/06 11:25:55;;;;;;;5.22;1.83;;;;;;;12.22;71.00;100809.97;10360022;28;20038;-81
2022/11/06 11:31:03;;;;;;;7.72;2.10;;;;;;;12.63;70.17;100788.78;10362689;28;20432;-81
2022/11/06 11:36:05;;;;;;;3.80;1.15;;;;;;;14.75;59.84;100771.34;10360082;28;20049;-80
2022/11/06 11:41:18;;;;;;;7.20;2.40;;;;;;;16.62;54.08;100746.94;10349643;28;20077;-81
2022/11/06 11:46:19;;;;;;;5.88;1.52;;;;;;;14.48;57.40;100734.50;10360198;28;20136;-81
2022/11/06 11:51:42;;;;;;;10.45;2.47;;;;;;;14.16;60.39;100739.69;10360721;28;20049;-81
2022/11/06 11:56:49;;;;;;;4.50;1.30;;;;;;;15.77;55.40;100730.94;10345880;28;20076;-81
2022/11/06 12:01:49;;;;;;;5.65;1.25;;;;;;;16.49;53.53;100714.06;10361912;28;20075;-80
2022/11/06 12:06:59;;;;;;;3.60;1.67;;;;;;;15.29;54.60;100711.31;10359477;28;20040;-80
2022/11/06 12:12:00;;;;;;;7.57;1.95;;;;;;;13.89;60.20;100690.63;10359488;28;20130;-80
2022/11/06 12:17:05;;;;;;;10.70;4.00;;;;;;;12.98;62.46;100691.09;10398874;28;20029;-79
2022/11/06 12:22:14;;;;;;;11.60;2.22;;;;;;;12.72;63.36;100692.00;10400688;28;20033;-82
2022/11/06 12:27:36;;;;;;;3.75;1.42;;;;;;;12.24;63.79;100691.97;10358141;28;20033;-81
2022/11/06 12:32:45;;;;;;;4.97;1.02;;;;;;;11.96;64.77;100683.00;10359821;28;20038;-80
2022/11/06 12:38:10;;;;;;;4.32;1.52;;;;;;;11.77;65.00;100687.50;10360306;28;20042;-80
2022/11/06 12:43:34;;;;;;;3.60;1.75;;;;;;;11.85;66.83;100672.06;10340933;28;20461;-80
2022/11/06 12:48:43;;;;;;;5.55;1.65;;;;;;;11.78;65.11;100654.31;10358665;28;20026;-82
2022/11/06 12:54:37;;;;;;;8.15;1.65;;;;;;;11.64;65.73;100653.78;10358378;28;20500;-79
2022/11/06 12:59:43;;;;;;;4.28;1.33;;;;;;;11.68;66.14;100651.31;10161572;28;20464;-79
2022/11/06 13:05:05;;;;;;;3.22;1.10;;;;;;;11.63;67.87;100652.88;10296907;28;20553;-80
2022/11/06 13:10:13;;;;;;;7.18;1.75;;;;;;;11.37;67.15;100642.22;10365508;28;20449;-79
2022/11/06 13:15:27;;;;;;;3.60;1.65;;;;;;;11.16;67.66;100661.47;10360180;28;20030;-80
2022/11/06 13:20:35;;;;;;;14.57;2.47;;;;;;;11.08;67.37;100657.63;10367248;28;20030;-80
2022/11/06 13:26:00;;;;;;;2.63;1.45;;;;;;;11.12;67.04;100669.16;10355619;28;20424;-80
2022/11/06 13:31:02;;;;;;;5.45;1.60;;;;;;;11.10;67.42;100670.81;10393024;28;20498;-80
2022/11/06 13:36:03;;;;;;;3.47;1.55;;;;;;;11.06;68.36;100661.91;10359836;28;20539;-80
2022/11/06 13:41:14;;;;;;;4.00;1.88;;;;;;;10.84;68.18;100668.84;10397965;28;20080;-79
2022/11/06 13:46:17;;;;;;;2.70;1.00;;;;;;;10.72;69.21;100663.06;10348037;28;20046;-79
2022/11/06 13:51:46;;;;;;;10.30;1.88;;;;;;;10.55;70.57;100660.59;10364159;28;20081;-79
2022/11/06 13:57:10;;;;;;;5.65;3.50;;;;;;;10.27;72.21;100655.84;10386229;28;20045;-80
2022/11/06 14:02:39;;;;;;;3.85;1.52;;;;;;;10.09;73.71;100648.03;10377013;28;20037;-80
2022/11/06 14:07:40;;;;;;;8.45;2.15;;;;;;;9.76;77.06;100645.63;10367392;28;20061;-80
2022/11/06 14:12:45;;;;;;;3.10;1.55;;;;;;;9.48;81.82;100653.06;10394190;28;20042;-81
2022/11/06 14:17:56;;;;;;;3.97;1.50;;;;;;;9.29;82.66;100645.16;10332944;28;20398;-81
2022/11/06 14:23:28;;;;;;;4.32;2.05;;;;;;;8.99;87.44;100653.22;10362925;28;20061;-79
2022/11/06 14:28:34;;;;;;;4.55;2.30;;;;;;;8.77;89.60;100657.34;10364416;28;20524;-81
2022/11/06 14:33:43;;;;;;;16.45;2.75;;;;;;;8.57;93.89;100661.53;10346108;28;20037;-80
2022/11/06 14:38:44;;;;;;;5.82;2.10;;;;;;;8.40;96.04;100653.66;10364072;28;20042;-81
2022/11/06 14:43:48;;;;;;;4.82;1.90;;;;;;;8.21;98.28;100651.81;10364937;28;20133;-81
2022/11/06 14:48:50;;;;;;;5.60;2.75;;;;;;;8.04;99.89;100637.84;10346518;28;20790;-81
2022/11/06 14:53:52;;;;;;;6.53;2.25;;;;;;;7.98;100.00;100612.38;10361697;28;20049;-81
2022/11/06 14:59:14;;;;;;;7.15;2.72;;;;;;;7.85;100.00;100595.16;10355591;28;20038;-83
2022/11/06 15:04:21;;;;;;;6.93;2.22;;;;;;;7.63;100.00;100564.44;10359804;28;20517;-85
2022/11/06 15:09:22;;;;;;;8.93;3.92;;;;;;;7.47;100.00;100558.41;10362745;28;20049;-84
2022/11/06 15:14:23;;;;;;;7.72;3.10;;;;;;;7.39;100.00;100577.91;10354422;28;20064;-84
2022/11/06 15:19:26;;;;;;;9.80;3.65;;;;;;;7.29;100.00;100588.63;10363431;28;20056;-84
2022/11/06 15:24:45;;;;;;;;;;;;;;;7.22;100.00;100576.06;10359780;28;20034;-85
2022/11/06 15:29:47;;;;;;;6.88;2.80;;;;;;;7.06;100.00;100562.19;10361292;28;19971;-85
2022/11/06 15:35:18;;;;;;;9.70;3.72;;;;;;;7.01;100.00;100559.31;10345819;28;20152;-86
2022/11/06 15:40:35;;;;;;;7.20;3.75;;;;;;;6.98;100.00;100560.84;10360795;28;20042;-86
2022/11/06 15:45:36;;;;;;;15.02;4.18;;;;;;;6.92;100.00;100543.16;10357559;28;20054;-87
2022/11/06 15:50:41;;;;;;;6.50;3.38;;;;;;;6.85;100.00;100556.63;10357295;28;20128;-85
2022/11/06 15:55:46;;;;;;;11.07;4.93;;;;;;;6.84;100.00;100534.94;10341392;28;20049;-85
2022/11/06 16:00:47;;;;;;;9.98;5.85;;;;;;;6.84;100.00;100521.94;10341158;28;20042;-90
2022/11/06 16:05:49;;;;;;;11.10;4.32;;;;;;;6.83;100.00;100501.94;10353475;28;20041;-87
2022/11/06 16:10:49;;;;;;;6.10;3.55;;;;;;;6.82;100.00;100510.53;10357615;28;20046;-91
2022/11/06 16:16:00;;;;;;;10.02;3.88;;;;;;;6.83;100.00;100521.81;10340498;28;20038;-90
2022/11/06 16:21:20;;;;;;;14.57;4.65;;;;;;;6.76;100.00;100518.88;10363884;28;20038;-92
2022/11/06 16:26:27;;;;;;;7.43;4.20;;;;;;;6.68;100.00;100509.72;10339525;28;20065;-92
2022/11/06 16:31:28;;;;;;;9.05;4.80;;;;;;;6.66;100.00;100489.66;10357386;28;20037;-90
2022/11/06 16:36:46;;;;;;;6.27;2.90;;;;;;;6.64;100.00;100479.16;10340097;28;20042;-92
2022/11/06 16:41:56;;;;;;;9.27;3.90;;;;;;;6.57;100.00;100475.31;10356038;28;20474;-91
2022/11/06 16:47:08;;;;;;;7.40;3.70;;;;;;;6.55;100.00;100468.22;10360611;28;20413;-89
2022/11/06 16:52:31;;;;;;;8.38;3.83;;;;;;;6.49;100.00;100447.06;10361190;28;20030;-88
2022/11/06 16:57:40;;;;;;;;;;;;;;;6.49;100.00;100429.78;10360112;28;20085;-90
2022/11/06 17:02:42;;;;;;;6.30;3.33;;;;;;;6.46;100.00;100424.41;10359901;28;20017;-89
2022/11/06 17:07:42;;;;;;;8.07;4.22;;;;;;;6.46;100.00;100427.00;10340184;28;20070;-85
2022/11/06 17:12:43;;;;;;;6.10;3.85;;;;;;;6.39;100.00;100402.34;10360835;28;20085;-81
2022/11/06 17:17:43;;;;;;;6.47;3.28;;;;;;;6.39;100.00;100393.69;10360393;28;20056;-88
2022/11/06 17:22:45;;;;;;;17.20;4.50;;;;;;;6.34;100.00;100422.00;10356396;28;20049;-87
2022/11/06 17:27:45;;;;;;;6.30;3.03;;;;;;;6.33;100.00;100422.81;10340680;28;20490;-87
2022/11/06 17:32:46;;;;;;;7.18;2.78;;;;;;;6.32;100.00;100416.72;10359248;28;20040;-87
2022/11/06 17:37:46;;;;;;;7.07;3.92;;;;;;;6.38;100.00;100421.34;10340268;28;20482;-89
2022/11/06 17:42:47;;;;;;;7.05;2.75;;;;;;;6.37;100.00;100421.28;10319344;28;20058;-88
2022/11/06 17:47:47;;;;;;;7.55;3.10;;;;;;;6.35;100.00;100415.09;10336149;28;20044;-88
2022/11/06 17:52:48;;;;;;;5.00;3.15;;;;;;;6.42;100.00;100430.25;10357216;28;20030;-88
2022/11/06 17:57:48;;;;;;;5.88;2.83;;;;;;;6.45;100.00;100420.91;10355130;28;20062;-87
2022/11/06 18:02:49;;;;;;;4.78;2.78;;;;;;;6.44;100.00;100410.44;10351827;28;20046;-87
2022/11/06 18:07:50;;;;;;;6.47;3.08;;;;;;;6.51;100.00;100415.19;10347347;28;20050;-88
2022/11/06 18:12:51;;;;;;;4.07;2.35;;;;;;;6.61;100.00;100426.97;10338176;28;20041;-87
2022/11/06 18:17:51;;;;;;;4.32;1.98;;;;;;;6.68;100.00;100416.09;10373414;28;22003;-82
2022/11/06 18:22:52;;;;;;;4.63;2.45;;;;;;;6.74;100.00;100411.25;10350309;28;22540;-89
2022/11/06 18:27:52;;;;;;;9.55;2.63;;;;;;;6.82;99.57;100416.91;10341242;28;20077;-88
2022/11/06 18:32:53;;;;;;;3.63;2.22;;;;;;;6.86;100.00;100421.47;10351429;28;20087;-90
2022/11/06 18:37:53;;;;;;;5.22;2.75;;;;;;;6.92;99.88;100423.50;10357814;28;20537;-88
2022/11/06 18:42:54;;;;;;;7.20;2.10;;;;;;;7.04;98.61;100423.28;10362177;28;20038;-87
2022/11/06 18:47:54;;;;;;;3.95;2.17;;;;;;;7.16;98.40;100420.44;10364118;28;20042;-87
2022/11/06 18:52:55;;;;;;;4.40;2.00;;;;;;;7.29;97.39;100422.00;10356523;28;20465;-82
2022/11/06 18:57:55;;;;;;;3.72;1.77;;;;;;;7.41;97.89;100430.47;10347528;28;20087;-82
2022/11/06 19:02:56;;;;;;;10.90;7.78;;;;;;;7.56;97.99;100413.88;10354303;28;20490;-83
2022/11/06 19:07:56;;;;;;;4.72;2.72;;;;;;;7.70;97.16;100406.75;10363492;28;20404;-79
2022/11/06 19:12:57;;;;;;;5.20;2.30;;;;;;;7.81;97.60;100428.19;10362095;28;20132;-78
2022/11/06 19:17:58;;;;;;;5.13;2.80;;;;;;;7.91;97.97;100428.72;10351903;28;20177;-79
2022/11/06 19:22:59;;;;;;;7.77;2.63;;;;;;;8.06;96.75;100438.13;10366041;28;20515;-81
2022/11/06 19:27:59;;;;;;;6.20;1.98;;;;;;;8.13;96.53;100437.63;10361377;28;20061;-80
2022/11/06 19:33:00;;;;;;;4.55;2.10;;;;;;;8.12;98.01;100456.69;10342424;28;20481;-82
2022/11/06 19:38:01;;;;;;;7.82;2.60;;;;;;;8.20;97.49;100459.69;10361159;28;20042;-80
2022/11/06 19:43:02;;;;;;;5.97;1.92;;;;;;;8.27;96.69;100455.69;10343700;28;20037;-81
2022/11/06 19:48:03;;;;;;;7.97;1.98;;;;;;;8.26;97.68;100461.72;10341740;28;20042;-82
2022/11/06 19:53:04;;;;;;;4.80;2.13;;;;;;;8.32;97.83;100456.81;10355889;28;20041;-84
2022/11/06 19:58:04;;;;;;;6.05;2.80;;;;;;;8.31;98.17;100441.97;10354828;28;20533;-81
2022/11/06 20:03:05;;;;;;;7.95;2.33;;;;;;;8.40;98.51;100465.91;10357019;28;20034;-81
2022/11/06 20:08:06;;;;;;;4.53;2.10;;;;;;;8.42;98.65;100461.66;10358149;28;20478;-81
2022/11/06 20:13:06;;;;;;;6.85;2.90;;;;;;;8.48;98.59;100461.09;10356428;28;20081;-82
2022/11/06 20:18:08;;;;;;;5.63;2.85;;;;;;;8.52;98.38;100463.94;10356649;28;20034;-83
2022/11/06 20:23:08;;;;;;;5.95;2.20;;;;;;;8.56;99.05;100461.47;10356848;28;20125;-83
2022/11/06 20:28:09;;;;;;;5.50;2.55;;;;;;;8.64;98.59;100473.19;10360645;28;20037;-84
2022/11/06 20:33:09;;;;;;;5.63;2.60;;;;;;;8.70;98.68;100468.28;10357078;28;20112;-85
2022/11/06 20:38:13;;;;;;;4.75;2.40;;;;;;;8.76;98.12;100476.41;10356282;28;20033;-82
2022/11/06 20:43:14;;;;;;;5.90;3.20;;;;;;;8.74;98.43;100487.59;10355726;28;20137;-81
2022/11/06 20:48:15;;;;;;;8.53;2.70;;;;;;;8.84;97.86;100496.75;10356814;28;20465;-81
2022/11/06 20:53:15;;;;;;;5.60;2.38;;;;;;;8.82;98.71;100500.19;10358740;28;20058;-81
2022/11/06 20:58:16;;;;;;;5.50;2.38;;;;;;;8.84;98.91;100515.03;10357533;28;20491;-81
2022/11/06 21:03:16;;;;;;;6.60;2.22;;;;;;;8.98;97.66;100523.53;10359873;28;20133;-80
2022/11/06 21:08:17;;;;;;;5.78;2.63;;;;;;;9.03;97.12;100515.09;10358555;28;20049;-80
2022/11/06 21:13:17;;;;;;;5.63;2.83;;;;;;;8.98;97.96;100521.81;10341765;28;20129;-81
2022/11/06 21:18:18;;;;;;;5.95;2.42;;;;;;;9.00;97.71;100532.34;10357525;28;20103;-81
2022/11/06 21:23:18;;;;;;;8.85;3.45;;;;;;;8.90;98.69;100549.25;10360118;28;20038;-81
2022/11/06 21:28:19;;;;;;;4.68;2.88;;;;;;;8.92;98.81;100555.44;10357885;28;20050;-81
2022/11/06 21:33:19;;;;;;;6.97;2.53;;;;;;;8.90;99.12;100550.16;10341722;28;20066;-81
2022/11/06 21:38:20;;;;;;;13.32;2.70;;;;;;;8.91;99.53;100558.88;10340794;28;20038;-82
2022/11/06 21:43:21;;;;;;;6.35;3.30;;;;;;;8.92;98.41;100558.06;10356933;28;20463;-81
2022/11/06 21:48:21;;;;;;;4.32;2.13;;;;;;;8.84;99.00;100557.69;10358710;28;20513;-81
2022/11/06 21:58:41;;;;;;;6.95;2.22;;;;;;;8.86;99.62;100566.50;10344382;28;20079;-81
2022/11/06 22:03:41;;;;;;;7.93;2.50;;;;;;;8.99;98.47;100557.53;10358344;28;20041;-81
2022/11/06 22:08:43;;;;;;;6.82;2.78;;;;;;;9.04;98.18;100566.47;10358875;28;20050;-81
2022/11/06 22:13:44;;;;;;;4.67;2.40;;;;;;;9.11;97.19;100570.31;10365103;28;20034;-81
2022/11/06 22:18:44;;;;;;;6.72;2.92;;;;;;;9.04;98.76;100576.94;10339498;28;20406;-80
2022/11/06 22:23:45;;;;;;;6.65;2.85;;;;;;;9.11;98.18;100552.03;10363991;28;20045;-81
2022/11/06 22:28:45;;;;;;;6.35;2.45;;;;;;;9.24;97.92;100575.31;10365640;28;20060;-80
2022/11/06 22:33:46;;;;;;;9.25;3.40;;;;;;;9.34;97.08;100571.41;10364877;28;20132;-80
2022/11/06 22:38:47;;;;;;;5.90;2.72;;;;;;;9.39;97.21;100579.47;10364199;28;20052;-80
2022/11/06 22:43:47;;;;;;;6.97;2.53;;;;;;;9.54;96.31;100589.75;10346551;28;20092;-80
2022/11/06 22:48:48;;;;;;;5.25;2.67;;;;;;;9.59;96.42;100569.94;10364651;28;20486;-80
2022/11/06 22:53:49;;;;;;;11.05;3.13;;;;;;;9.31;99.23;100580.81;10362126;28;20449;-81
2022/11/06 22:58:53;;;;;;;6.35;3.38;;;;;;;9.17;99.70;100577.53;10363204;28;20084;-81
2022/11/06 23:03:56;;;;;;;5.10;3.38;;;;;;;9.00;100.00;100584.53;10363885;28;20046;-81
2022/11/06 23:08:57;;;;;;;6.85;3.85;;;;;;;8.98;100.00;100594.00;10347215;28;20034;-81
2022/11/06 23:13:59;;;;;;;8.25;2.72;;;;;;;9.10;100.00;100600.72;10346679;28;20427;-80
2022/11/06 23:18:59;;;;;;;5.35;3.10;;;;;;;9.13;100.00;100606.91;10362672;28;20042;-80
2022/11/06 23:24:00;;;;;;;8.00;3.47;;;;;;;9.17;100.00;100608.84;10362829;28;20042;-81
2022/11/06 23:29:00;;;;;;;4.85;2.35;;;;;;;9.02;100.00;100615.13;10361952;28;20034;-80
2022/11/06 23:34:01;;;;;;;6.85;3.00;;;;;;;8.92;100.00;100619.00;10361078;28;20134;-80
2022/11/06 23:39:02;;;;;;;5.97;2.67;;;;;;;8.84;100.00;100624.63;10362511;28;20526;-80
2022/11/06 23:44:02;;;;;;;6.75;3.83;;;;;;;8.69;100.00;100617.81;10361581;28;20481;-80
2022/11/06 23:49:03;;;;;;;7.40;3.25;;;;;;;8.66;100.00;100622.88;10361710;28;20026;-80